Hauptseite
METAR-TAF:

METAR-TAF

Flughäfen :

Boscombe Down, England

MoD Boscombe Down

Breite: 51-10N, Länge: 001-45W, Höhe: 124 m

Beobachtung

Neuester Wetterbericht von vor 38 Minuten, um 00:50 UTC
Wind 9 kt aus Ost/Nordost
Temperatur -1°C
Luftfeuchtigkeit 86%
Luftdruck 1023 hPa
Sichtweite 10 km oder mehr

METAR: EGDM 250050Z AUTO 07009KT 9999 NCD M01/M03 Q1023

Zeit: 01:28 (01:28 UTC)

Prognose

Neuester Wetterbericht von vor 11 Stunden und 57 Minuten, um 13:31 UTC
Gültige Prognose vom 24 um 15 UTC bis 24 um 18 UTC
Wind 13 kt aus Ost/Nordost
Sichtweite 10 km oder mehr
keine Wolken unter 1500 m und keine Kumulonimbus oder Gewitterwolken

TAF: EGDM 241331Z 2415/2418 06013KT CAVOK

Wetterbeobachtungen und Prognosen von mehr als 4000 Flughäfen (METAR und TAF Bericht).

Die verfügbaren Stationen werden durch gelbe und rote Markierungen auf der Karte dargestellt.

Führen Sie die Maus auf sie, um den Namen der Station zu sehen.

Darauf klicken, um die Beobachtung von Wetterbeobachtungen und Prognosen zu sehen.

Um die Karte zu ändern : klicken Sie auf den grünen Tasten mit einem schwarzen Kreuz Zum Vergrößern, auf den grünen Button mit einem Gedankenstrich zu verkleinern, oder auf die grünen Pfeile für benachbarte Karten.


METAR-TAF: